| time (UTC) | temp F | wind direction | speed knots | gust knots | rain 1hr in | rain 24hr in | rain mn in | humidity % | barometer mb |
| 20260508011924 | 51 | 228 | 0.0 | 0.0 | 0.00 | 0.15 | 0.00 | 9 | 1013.8 |
| 20260508010033 | 52 | 228 | 0.0 | 0.0 | 0.00 | 0.15 | 0.00 | 9 | 1013.8 |
| 20260508002333 | 52 | 228 | 0.0 | 0.0 | 0.00 | 0.15 | 0.00 | 9 | 1014.0 |
| 20260508000737 | 52 | 228 | 0.0 | 0.0 | 0.00 | 0.15 | 0.00 | 9 | 1014.0 |
| 20260507234953 | 52 | 193 | 0.0 | 0.9 | 0.00 | 0.15 | 0.00 | 9 | 1013.9 |
| 20260507233056 | 52 | 194 | 0.0 | 0.0 | 0.00 | 0.15 | 0.00 | 9 | 1014.0 |
| 20260507231203 | 52 | 194 | 0.0 | 0.0 | 0.00 | 0.15 | 0.00 | 9 | 1014.1 |
| 20260507225358 | 52 | 194 | 0.0 | 0.0 | 0.00 | 0.15 | 0.00 | 9 | 1014.3 |
| 20260507223452 | 52 | 303 | 0.0 | 0.9 | 0.00 | 0.15 | 0.00 | 9 | 1014.1 |
| 20260507221633 | 53 | 249 | 0.0 | 0.9 | 0.00 | 0.15 | 0.00 | 9 | 1014.1 |
| 20260507215801 | 53 | 276 | 0.0 | 1.7 | 0.00 | 0.15 | 0.15 | 9 | 1014.2 |
| 20260507213833 | 54 | 82 | 0.9 | 1.7 | 0.00 | 0.15 | 0.15 | 9 | 1013.8 |
| 20260507212232 | 55 | 240 | 0.0 | 0.0 | 0.00 | 0.15 | 0.15 | 9 | 1013.9 |
| 20260507210435 | 55 | 238 | 0.0 | 0.0 | 0.00 | 0.15 | 0.15 | 9 | 1013.6 |
| 20260507210313 | 55 | 238 | 0.0 | 0.0 | 0.00 | 0.15 | 0.15 | 9 | 1013.6 |
| 20260507204633 | 55 | 196 | 0.0 | 0.0 | 0.00 | 0.15 | 0.15 | 9 | 1013.6 |
| 20260507202832 | 55 | 187 | 0.0 | 0.0 | 0.00 | 0.15 | 0.15 | 9 | 1013.4 |
| 20260507200953 | 55 | 188 | 0.0 | 0.0 | 0.00 | 0.15 | 0.15 | 9 | 1013.2 |
| 20260507195357 | 55 | 188 | 0.0 | 0.0 | 0.00 | 0.15 | 0.15 | 9 | 1012.9 |
| 20260507193655 | 55 | 188 | 0.0 | 0.0 | 0.00 | 0.15 | 0.15 | 9 | 1012.8 |
| 20260507192045 | 55 | 188 | 0.0 | 0.0 | 0.00 | 0.15 | 0.15 | 9 | 1012.7 |
| 20260507190338 | 55 | 188 | 0.0 | 0.0 | 0.00 | 0.15 | 0.15 | 9 | 1012.3 |
| 20260507182915 | 55 | 188 | 0.0 | 0.0 | 0.00 | 0.15 | 0.15 | 9 | 1011.9 |
| 20260507180920 | 56 | 188 | 0.0 | 0.0 | 0.00 | 0.15 | 0.15 | 9 | 1011.8 |
| 20260507175113 | 56 | 188 | 0.0 | 0.0 | 0.00 | 0.15 | 0.15 | 9 | 1011.8 |
| 20260507173213 | 57 | 188 | 0.0 | 0.0 | 0.00 | 0.15 | 0.15 | 9 | 1011.7 |
| 20260507165638 | 57 | 230 | 0.0 | 0.0 | 0.00 | 0.15 | 0.15 | 9 | 1011.6 |
| 20260507164003 | 57 | 230 | 0.0 | 0.0 | 0.00 | 0.15 | 0.15 | 9 | 1011.4 |
| 20260507162225 | 58 | 230 | 0.0 | 0.0 | 0.00 | 0.15 | 0.15 | 9 | 1011.6 |
| 20260507160310 | 57 | 228 | 0.0 | 0.0 | 0.00 | 0.15 | 0.15 | 9 | 1011.7 |
| 20260507154543 | 57 | 228 | 0.0 | 0.0 | 0.00 | 0.15 | 0.15 | 9 | 1011.7 |
| 20260507152803 | 56 | 228 | 0.0 | 0.0 | 0.05 | 0.20 | 0.15 | 9 | 1012.1 |
| 20260507150918 | 56 | 238 | 0.0 | 0.0 | 0.05 | 0.20 | 0.15 | 9 | 1012.1 |
| 20260507145054 | 56 | 222 | 0.0 | 1.7 | 0.15 | 0.20 | 0.15 | 9 | 1012.2 |
| 20260507143434 | 57 | 231 | 0.9 | 1.7 | 0.09 | 0.15 | 0.09 | 9 | 1011.8 |
| 20260507141736 | 57 | 240 | 0.9 | 1.7 | 0.09 | 0.15 | 0.09 | 9 | 1011.6 |
| 20260507140010 | 61 | 207 | 3.5 | 5.2 | 0.00 | 0.00 | 0.00 | 7 | 1011.3 |
| 20260507134330 | 66 | 321 | 1.7 | 3.5 | 0.00 | 0.00 | 0.00 | 6 | 1011.3 |
| 20260507132532 | 67 | 231 | 0.0 | 0.0 | 0.00 | 0.00 | 0.00 | 6 | 1010.8 |
| 20260507130715 | 65 | 231 | 0.0 | 0.0 | 0.00 | 0.00 | 0.00 | 7 | 1010.6 |
| 20260507124723 | 66 | 208 | 0.0 | 0.0 | 0.00 | 0.00 | 0.00 | 6 | 1010.5 |
| 20260507122910 | 67 | 208 | 0.0 | 0.0 | 0.00 | 0.00 | 0.00 | 6 | 1010.6 |
| 20260507121130 | 68 | 209 | 0.0 | 0.0 | 0.00 | 0.00 | 0.00 | 6 | 1010.6 |
| 20260507115238 | 70 | 281 | 0.9 | 0.9 | 0.00 | 0.00 | 0.00 | 5 | 1010.6 |
| 20260507113443 | 69 | 281 | 0.0 | 0.9 | 0.00 | 0.00 | 0.00 | 5 | 1010.4 |
| 20260507111523 | 71 | 237 | 0.0 | 0.9 | 0.00 | 0.00 | 0.00 | 5 | 1010.4 |
| 20260507105658 | 71 | 217 | 0.0 | 0.9 | 0.00 | 0.00 | 0.00 | 5 | 1010.2 |
| 20260507104030 | 71 | 243 | 0.0 | 0.0 | 0.00 | 0.00 | 0.00 | 5 | 1010.5 |
| 20260507102433 | 71 | 217 | 0.0 | 0.0 | 0.00 | 0.00 | 0.00 | 5 | 1010.0 |
| 20260507100623 | 71 | 274 | 0.0 | 0.9 | 0.00 | 0.00 | 0.00 | 5 | 1010.0 |
| 20260507094953 | 73 | 231 | 0.0 | 0.9 | 0.00 | 0.00 | 0.00 | 4 | 1010.0 |
| 20260507093050 | 73 | 205 | 0.0 | 0.0 | 0.00 | 0.00 | 0.00 | 4 | 1009.9 |
| 20260507091323 | 73 | 190 | 0.0 | 0.0 | 0.00 | 0.00 | 0.00 | 5 | 1009.8 |
| 20260507083638 | 71 | 228 | 0.0 | 0.9 | 0.00 | 0.00 | 0.00 | 4 | 1009.4 |
| 20260507081813 | 71 | 243 | 0.0 | 1.7 | 0.00 | 0.00 | 0.00 | 4 | 1009.4 |
| 20260507074530 | 70 | 225 | 0.9 | 3.5 | 0.00 | 0.00 | 0.00 | 5 | 1009.0 |
| 20260507072843 | 70 | 217 | 0.0 | 0.0 | 0.00 | 0.00 | 0.00 | 5 | 1009.1 |
| 20260507070903 | 69 | 194 | 0.0 | 2.6 | 0.00 | 0.00 | 0.00 | 5 | 1008.9 |
| 20260507065030 | 69 | 190 | 0.0 | 0.0 | 0.00 | 0.00 | 0.00 | 5 | 1008.7 |
| 20260507063123 | 68 | 265 | 0.0 | 0.0 | 0.00 | 0.00 | 0.00 | 6 | 1008.5 |
| 20260507061343 | 66 | 242 | 0.0 | 0.0 | 0.00 | 0.00 | 0.00 | 6 | 1008.7 |
| 20260507055656 | 64 | 236 | 0.0 | 0.0 | 0.00 | 0.00 | 0.00 | 6 | 1008.0 |
| 20260507054003 | 62 | 253 | 0.0 | 0.9 | 0.00 | 0.00 | 0.00 | 6 | 1008.3 |
| 20260507052050 | 62 | 173 | 0.0 | 0.9 | 0.00 | 0.00 | 0.00 | 7 | 1007.7 |
| 20260507050353 | 58 | 222 | 0.0 | 0.0 | 0.00 | 0.00 | 0.00 | 7 | 1008.0 |
| 20260507044623 | 57 | 223 | 0.0 | 1.7 | 0.00 | 0.00 | 0.00 | 7 | 1007.9 |
| 20260507042850 | 58 | 230 | 0.0 | 0.0 | 0.00 | 0.00 | 0.00 | 7 | 1008.1 |
| 20260507041020 | 58 | 238 | 0.9 | 1.7 | 0.00 | 0.00 | 0.00 | 7 | 1007.6 |
| 20260507035243 | 56 | 224 | 0.0 | 0.9 | 0.00 | 0.00 | 0.00 | 7 | 1007.8 |
| 20260507033258 | 56 | 224 | 0.0 | 0.0 | 0.00 | 0.00 | 0.00 | 7 | 1007.7 |
| 20260507031643 | 56 | 228 | 0.9 | 1.7 | 0.00 | 0.00 | 0.00 | 7 | 1007.8 |
| 20260507025823 | 57 | 227 | 0.0 | 0.0 | 0.00 | 0.00 | 0.00 | 7 | 1007.8 |
| 20260507024038 | 57 | 215 | 0.0 | 0.0 | 0.00 | 0.00 | 0.00 | 7 | 1007.6 |
| 20260507022243 | 57 | 227 | 0.0 | 0.0 | 0.00 | 0.00 | 0.00 | 7 | 1007.6 |
| 20260507020623 | 57 | 221 | 0.0 | 0.0 | 0.00 | 0.00 | 0.00 | 7 | 1007.4 |